sensor_id;sensor_type;location;lat;lon;timestamp;P1;durP1;ratioP1;P2;durP2;ratioP2
78563;SDS011;67856;47.754;19.088;2023-08-20T00:02:08;3.50;;;3.20;;
78563;SDS011;67856;47.754;19.088;2023-08-20T00:05:12;3.47;;;3.17;;
78563;SDS011;67856;47.754;19.088;2023-08-20T00:08:15;3.45;;;3.15;;
78563;SDS011;67856;47.754;19.088;2023-08-20T00:11:18;3.40;;;3.10;;
78563;SDS011;67856;47.754;19.088;2023-08-20T00:14:20;3.57;;;3.27;;
78563;SDS011;67856;47.754;19.088;2023-08-20T00:18:07;3.20;;;2.90;;
78563;SDS011;67856;47.754;19.088;2023-08-20T00:21:10;3.95;;;2.85;;
78563;SDS011;67856;47.754;19.088;2023-08-20T00:24:12;3.45;;;3.10;;
78563;SDS011;67856;47.754;19.088;2023-08-20T00:27:15;3.33;;;3.03;;
78563;SDS011;67856;47.754;19.088;2023-08-20T00:30:18;3.50;;;3.20;;
78563;SDS011;67856;47.754;19.088;2023-08-20T00:33:20;3.33;;;3.03;;
78563;SDS011;67856;47.754;19.088;2023-08-20T00:36:23;3.53;;;3.22;;
78563;SDS011;67856;47.754;19.088;2023-08-20T00:39:25;3.35;;;3.05;;
78563;SDS011;67856;47.754;19.088;2023-08-20T00:42:28;3.35;;;3.05;;
78563;SDS011;67856;47.754;19.088;2023-08-20T00:45:32;3.83;;;3.43;;
78563;SDS011;67856;47.754;19.088;2023-08-20T00:48:36;3.22;;;2.92;;
78563;SDS011;67856;47.754;19.088;2023-08-20T00:51:38;3.60;;;3.30;;
78563;SDS011;67856;47.754;19.088;2023-08-20T00:54:41;3.53;;;3.22;;
78563;SDS011;67856;47.754;19.088;2023-08-20T00:57:44;3.25;;;2.95;;
78563;SDS011;67856;47.754;19.088;2023-08-20T01:00:47;3.40;;;3.10;;
78563;SDS011;67856;47.754;19.088;2023-08-20T01:03:49;3.40;;;3.10;;
78563;SDS011;67856;47.754;19.088;2023-08-20T01:13:25;3.30;;;3.00;;
78563;SDS011;67856;47.754;19.088;2023-08-20T01:16:28;3.50;;;3.20;;
78563;SDS011;67856;47.754;19.088;2023-08-20T01:19:30;3.47;;;2.90;;
78563;SDS011;67856;47.754;19.088;2023-08-20T01:29:15;3.60;;;3.03;;
78563;SDS011;67856;47.754;19.088;2023-08-20T01:32:17;3.20;;;2.90;;
78563;SDS011;67856;47.754;19.088;2023-08-20T01:35:20;3.38;;;3.00;;
78563;SDS011;67856;47.754;19.088;2023-08-20T01:38:36;2.97;;;2.67;;
78563;SDS011;67856;47.754;19.088;2023-08-20T01:41:39;3.20;;;2.90;;
78563;SDS011;67856;47.754;19.088;2023-08-20T01:44:42;3.28;;;2.97;;
78563;SDS011;67856;47.754;19.088;2023-08-20T01:47:45;3.50;;;3.20;;
78563;SDS011;67856;47.754;19.088;2023-08-20T01:50:48;3.08;;;2.78;;
78563;SDS011;67856;47.754;19.088;2023-08-20T01:53:51;3.20;;;2.90;;
78563;SDS011;67856;47.754;19.088;2023-08-20T01:56:53;3.90;;;2.97;;
78563;SDS011;67856;47.754;19.088;2023-08-20T01:59:56;3.28;;;2.97;;
78563;SDS011;67856;47.754;19.088;2023-08-20T02:03:00;3.17;;;2.87;;
78563;SDS011;67856;47.754;19.088;2023-08-20T02:06:03;3.10;;;2.80;;
78563;SDS011;67856;47.754;19.088;2023-08-20T02:09:05;3.20;;;2.90;;
78563;SDS011;67856;47.754;19.088;2023-08-20T02:12:08;3.30;;;3.00;;
78563;SDS011;67856;47.754;19.088;2023-08-20T02:15:10;3.10;;;2.80;;
78563;SDS011;67856;47.754;19.088;2023-08-20T02:18:13;3.30;;;3.00;;
78563;SDS011;67856;47.754;19.088;2023-08-20T02:21:17;3.40;;;3.10;;
78563;SDS011;67856;47.754;19.088;2023-08-20T02:24:19;3.30;;;3.00;;
78563;SDS011;67856;47.754;19.088;2023-08-20T02:27:22;3.15;;;2.85;;
78563;SDS011;67856;47.754;19.088;2023-08-20T02:30:26;3.20;;;2.90;;
78563;SDS011;67856;47.754;19.088;2023-08-20T02:33:28;3.07;;;2.77;;
78563;SDS011;67856;47.754;19.088;2023-08-20T02:36:30;3.17;;;2.85;;
78563;SDS011;67856;47.754;19.088;2023-08-20T02:39:33;3.13;;;2.83;;
78563;SDS011;67856;47.754;19.088;2023-08-20T02:42:36;3.10;;;2.80;;
78563;SDS011;67856;47.754;19.088;2023-08-20T02:45:39;3.25;;;2.95;;
78563;SDS011;67856;47.754;19.088;2023-08-20T02:48:45;3.10;;;2.80;;
78563;SDS011;67856;47.754;19.088;2023-08-20T02:51:47;3.00;;;2.70;;
78563;SDS011;67856;47.754;19.088;2023-08-20T02:54:50;3.33;;;3.03;;
78563;SDS011;67856;47.754;19.088;2023-08-20T02:57:52;3.10;;;2.80;;
78563;SDS011;67856;47.754;19.088;2023-08-20T03:00:55;3.00;;;2.70;;
78563;SDS011;67856;47.754;19.088;2023-08-20T03:03:57;3.20;;;2.90;;
78563;SDS011;67856;47.754;19.088;2023-08-20T03:06:59;3.20;;;2.90;;
78563;SDS011;67856;47.754;19.088;2023-08-20T03:10:02;3.15;;;2.88;;
78563;SDS011;67856;47.754;19.088;2023-08-20T03:13:08;3.55;;;3.25;;
78563;SDS011;67856;47.754;19.088;2023-08-20T03:16:10;3.30;;;3.00;;
78563;SDS011;67856;47.754;19.088;2023-08-20T03:19:14;3.10;;;2.80;;
78563;SDS011;67856;47.754;19.088;2023-08-20T03:22:17;3.20;;;2.90;;
78563;SDS011;67856;47.754;19.088;2023-08-20T03:25:19;3.10;;;2.80;;
78563;SDS011;67856;47.754;19.088;2023-08-20T03:28:22;2.97;;;2.75;;
78563;SDS011;67856;47.754;19.088;2023-08-20T03:31:25;3.20;;;2.90;;
78563;SDS011;67856;47.754;19.088;2023-08-20T03:34:27;3.20;;;2.90;;
78563;SDS011;67856;47.754;19.088;2023-08-20T03:37:31;3.30;;;3.00;;
78563;SDS011;67856;47.754;19.088;2023-08-20T03:40:34;3.10;;;2.80;;
78563;SDS011;67856;47.754;19.088;2023-08-20T03:43:37;3.40;;;3.10;;
78563;SDS011;67856;47.754;19.088;2023-08-20T03:46:39;3.30;;;2.97;;
78563;SDS011;67856;47.754;19.088;2023-08-20T03:49:42;3.23;;;2.93;;
78563;SDS011;67856;47.754;19.088;2023-08-20T03:52:44;3.00;;;2.70;;
78563;SDS011;67856;47.754;19.088;2023-08-20T03:55:47;3.10;;;2.80;;
78563;SDS011;67856;47.754;19.088;2023-08-20T03:58:50;3.15;;;2.85;;
78563;SDS011;67856;47.754;19.088;2023-08-20T04:01:54;3.10;;;2.80;;
78563;SDS011;67856;47.754;19.088;2023-08-20T04:04:57;3.13;;;2.83;;
78563;SDS011;67856;47.754;19.088;2023-08-20T04:08:02;3.03;;;2.72;;
78563;SDS011;67856;47.754;19.088;2023-08-20T04:11:05;3.30;;;3.00;;
78563;SDS011;67856;47.754;19.088;2023-08-20T04:14:07;3.22;;;2.92;;
78563;SDS011;67856;47.754;19.088;2023-08-20T04:17:10;3.25;;;2.95;;
78563;SDS011;67856;47.754;19.088;2023-08-20T04:20:12;3.10;;;2.80;;
78563;SDS011;67856;47.754;19.088;2023-08-20T04:23:15;3.05;;;2.75;;
78563;SDS011;67856;47.754;19.088;2023-08-20T04:26:18;3.30;;;3.00;;
78563;SDS011;67856;47.754;19.088;2023-08-20T04:29:21;2.78;;;2.58;;
78563;SDS011;67856;47.754;19.088;2023-08-20T04:32:23;3.20;;;2.90;;
78563;SDS011;67856;47.754;19.088;2023-08-20T04:35:26;2.90;;;2.60;;
78563;SDS011;67856;47.754;19.088;2023-08-20T04:38:28;2.80;;;2.60;;
78563;SDS011;67856;47.754;19.088;2023-08-20T04:41:32;2.83;;;2.60;;
78563;SDS011;67856;47.754;19.088;2023-08-20T04:44:35;3.15;;;2.85;;
78563;SDS011;67856;47.754;19.088;2023-08-20T04:47:37;3.22;;;2.92;;
78563;SDS011;67856;47.754;19.088;2023-08-20T04:50:42;3.10;;;2.80;;
78563;SDS011;67856;47.754;19.088;2023-08-20T04:53:44;3.10;;;2.80;;
78563;SDS011;67856;47.754;19.088;2023-08-20T04:56:48;3.35;;;3.05;;
78563;SDS011;67856;47.754;19.088;2023-08-20T04:59:51;2.92;;;2.63;;
78563;SDS011;67856;47.754;19.088;2023-08-20T05:03:05;3.13;;;2.83;;
78563;SDS011;67856;47.754;19.088;2023-08-20T05:06:08;3.10;;;2.80;;
78563;SDS011;67856;47.754;19.088;2023-08-20T05:09:10;3.20;;;2.90;;
78563;SDS011;67856;47.754;19.088;2023-08-20T05:12:13;3.10;;;2.80;;
78563;SDS011;67856;47.754;19.088;2023-08-20T05:15:15;3.05;;;2.75;;
78563;SDS011;67856;47.754;19.088;2023-08-20T05:18:18;2.97;;;2.67;;
78563;SDS011;67856;47.754;19.088;2023-08-20T05:21:21;3.00;;;2.70;;
78563;SDS011;67856;47.754;19.088;2023-08-20T05:24:27;2.75;;;2.40;;
78563;SDS011;67856;47.754;19.088;2023-08-20T05:27:31;3.10;;;2.80;;
78563;SDS011;67856;47.754;19.088;2023-08-20T05:30:35;2.83;;;2.63;;
78563;SDS011;67856;47.754;19.088;2023-08-20T05:33:37;3.05;;;2.75;;
78563;SDS011;67856;47.754;19.088;2023-08-20T05:36:40;2.80;;;2.60;;
78563;SDS011;67856;47.754;19.088;2023-08-20T05:39:44;2.75;;;2.53;;
78563;SDS011;67856;47.754;19.088;2023-08-20T05:42:47;3.03;;;2.72;;
78563;SDS011;67856;47.754;19.088;2023-08-20T05:45:53;2.75;;;2.55;;
78563;SDS011;67856;47.754;19.088;2023-08-20T05:48:57;2.80;;;2.60;;
78563;SDS011;67856;47.754;19.088;2023-08-20T05:52:03;2.73;;;2.43;;
78563;SDS011;67856;47.754;19.088;2023-08-20T05:55:06;2.70;;;2.50;;
78563;SDS011;67856;47.754;19.088;2023-08-20T05:58:09;2.70;;;2.50;;
78563;SDS011;67856;47.754;19.088;2023-08-20T06:01:11;2.97;;;2.75;;
78563;SDS011;67856;47.754;19.088;2023-08-20T06:04:13;3.00;;;2.70;;
78563;SDS011;67856;47.754;19.088;2023-08-20T06:07:16;2.73;;;2.53;;
78563;SDS011;67856;47.754;19.088;2023-08-20T06:10:18;2.78;;;2.58;;
78563;SDS011;67856;47.754;19.088;2023-08-20T06:13:21;2.90;;;2.60;;
78563;SDS011;67856;47.754;19.088;2023-08-20T06:16:23;3.10;;;2.80;;
78563;SDS011;67856;47.754;19.088;2023-08-20T06:19:25;4.75;;;2.70;;
78563;SDS011;67856;47.754;19.088;2023-08-20T06:22:28;2.60;;;2.40;;
78563;SDS011;67856;47.754;19.088;2023-08-20T06:25:30;2.70;;;2.50;;
78563;SDS011;67856;47.754;19.088;2023-08-20T06:28:33;2.85;;;2.65;;
78563;SDS011;67856;47.754;19.088;2023-08-20T06:31:35;2.60;;;2.40;;
78563;SDS011;67856;47.754;19.088;2023-08-20T06:34:38;3.08;;;2.47;;
78563;SDS011;67856;47.754;19.088;2023-08-20T06:37:40;2.60;;;2.40;;
78563;SDS011;67856;47.754;19.088;2023-08-20T06:40:42;2.75;;;2.55;;
78563;SDS011;67856;47.754;19.088;2023-08-20T06:43:45;2.50;;;2.30;;
78563;SDS011;67856;47.754;19.088;2023-08-20T06:46:47;2.67;;;2.47;;
78563;SDS011;67856;47.754;19.088;2023-08-20T06:49:50;2.70;;;2.50;;
78563;SDS011;67856;47.754;19.088;2023-08-20T06:52:52;2.87;;;2.63;;
78563;SDS011;67856;47.754;19.088;2023-08-20T06:55:55;3.15;;;2.85;;
78563;SDS011;67856;47.754;19.088;2023-08-20T06:58:57;3.10;;;2.80;;
78563;SDS011;67856;47.754;19.088;2023-08-20T07:02:00;2.70;;;2.50;;
78563;SDS011;67856;47.754;19.088;2023-08-20T07:05:02;2.78;;;2.58;;
78563;SDS011;67856;47.754;19.088;2023-08-20T07:08:05;2.83;;;2.63;;
78563;SDS011;67856;47.754;19.088;2023-08-20T07:11:07;2.60;;;2.40;;
78563;SDS011;67856;47.754;19.088;2023-08-20T07:14:10;2.90;;;2.70;;
78563;SDS011;67856;47.754;19.088;2023-08-20T07:17:12;2.45;;;2.25;;
78563;SDS011;67856;47.754;19.088;2023-08-20T07:20:15;2.70;;;2.50;;
78563;SDS011;67856;47.754;19.088;2023-08-20T07:23:17;2.43;;;2.23;;
78563;SDS011;67856;47.754;19.088;2023-08-20T07:26:20;2.70;;;2.50;;
78563;SDS011;67856;47.754;19.088;2023-08-20T07:29:22;2.60;;;2.40;;
78563;SDS011;67856;47.754;19.088;2023-08-20T07:32:26;2.67;;;2.47;;
78563;SDS011;67856;47.754;19.088;2023-08-20T07:35:28;2.50;;;2.30;;
78563;SDS011;67856;47.754;19.088;2023-08-20T07:38:31;2.20;;;2.00;;
78563;SDS011;67856;47.754;19.088;2023-08-20T07:41:33;2.50;;;2.30;;
78563;SDS011;67856;47.754;19.088;2023-08-20T07:44:36;2.35;;;2.15;;
78563;SDS011;67856;47.754;19.088;2023-08-20T07:47:38;2.90;;;2.58;;
78563;SDS011;67856;47.754;19.088;2023-08-20T07:50:42;2.60;;;2.40;;
78563;SDS011;67856;47.754;19.088;2023-08-20T07:53:45;2.40;;;2.20;;
78563;SDS011;67856;47.754;19.088;2023-08-20T07:56:47;2.70;;;2.50;;
78563;SDS011;67856;47.754;19.088;2023-08-20T07:59:50;2.38;;;2.17;;
78563;SDS011;67856;47.754;19.088;2023-08-20T08:02:52;2.38;;;2.17;;
78563;SDS011;67856;47.754;19.088;2023-08-20T08:05:55;2.70;;;2.50;;
78563;SDS011;67856;47.754;19.088;2023-08-20T08:09:03;2.63;;;2.30;;
78563;SDS011;67856;47.754;19.088;2023-08-20T08:12:16;2.47;;;2.28;;
78563;SDS011;67856;47.754;19.088;2023-08-20T08:15:19;2.50;;;2.30;;
78563;SDS011;67856;47.754;19.088;2023-08-20T08:18:21;2.38;;;2.13;;
78563;SDS011;67856;47.754;19.088;2023-08-20T08:21:24;2.55;;;2.35;;
78563;SDS011;67856;47.754;19.088;2023-08-20T08:24:26;2.47;;;2.27;;
78563;SDS011;67856;47.754;19.088;2023-08-20T08:27:28;2.40;;;2.20;;
78563;SDS011;67856;47.754;19.088;2023-08-20T08:30:31;2.53;;;2.33;;
78563;SDS011;67856;47.754;19.088;2023-08-20T08:33:34;2.50;;;2.30;;
78563;SDS011;67856;47.754;19.088;2023-08-20T08:36:36;2.88;;;2.58;;
78563;SDS011;67856;47.754;19.088;2023-08-20T08:39:39;2.30;;;2.10;;
78563;SDS011;67856;47.754;19.088;2023-08-20T08:42:42;2.50;;;2.30;;
78563;SDS011;67856;47.754;19.088;2023-08-20T08:45:45;2.50;;;2.30;;
78563;SDS011;67856;47.754;19.088;2023-08-20T08:48:49;2.53;;;2.33;;
78563;SDS011;67856;47.754;19.088;2023-08-20T08:51:53;2.47;;;2.28;;
78563;SDS011;67856;47.754;19.088;2023-08-20T08:54:56;2.60;;;2.40;;
78563;SDS011;67856;47.754;19.088;2023-08-20T08:57:58;2.40;;;2.20;;
78563;SDS011;67856;47.754;19.088;2023-08-20T09:01:01;2.70;;;2.50;;
78563;SDS011;67856;47.754;19.088;2023-08-20T09:04:03;2.42;;;2.22;;
78563;SDS011;67856;47.754;19.088;2023-08-20T09:07:06;2.60;;;2.40;;
78563;SDS011;67856;47.754;19.088;2023-08-20T09:10:17;2.47;;;2.27;;
78563;SDS011;67856;47.754;19.088;2023-08-20T09:13:24;2.63;;;2.42;;
78563;SDS011;67856;47.754;19.088;2023-08-20T09:16:36;2.60;;;2.40;;
78563;SDS011;67856;47.754;19.088;2023-08-20T09:19:39;2.80;;;2.60;;
78563;SDS011;67856;47.754;19.088;2023-08-20T09:22:46;2.58;;;2.38;;
78563;SDS011;67856;47.754;19.088;2023-08-20T09:25:50;2.50;;;2.30;;
78563;SDS011;67856;47.754;19.088;2023-08-20T09:28:55;2.40;;;2.20;;
78563;SDS011;67856;47.754;19.088;2023-08-20T09:32:01;2.70;;;2.50;;
78563;SDS011;67856;47.754;19.088;2023-08-20T09:35:07;2.60;;;2.40;;
78563;SDS011;67856;47.754;19.088;2023-08-20T09:38:20;2.50;;;2.30;;
78563;SDS011;67856;47.754;19.088;2023-08-20T09:41:23;2.53;;;2.33;;
78563;SDS011;67856;47.754;19.088;2023-08-20T09:44:26;2.42;;;2.22;;
78563;SDS011;67856;47.754;19.088;2023-08-20T09:47:34;2.40;;;2.20;;
78563;SDS011;67856;47.754;19.088;2023-08-20T09:50:38;2.55;;;2.35;;
78563;SDS011;67856;47.754;19.088;2023-08-20T09:53:44;2.40;;;2.20;;
78563;SDS011;67856;47.754;19.088;2023-08-20T09:56:54;2.60;;;2.40;;
78563;SDS011;67856;47.754;19.088;2023-08-20T09:59:59;2.50;;;2.30;;
78563;SDS011;67856;47.754;19.088;2023-08-20T10:03:02;2.53;;;2.33;;
78563;SDS011;67856;47.754;19.088;2023-08-20T10:06:05;2.70;;;2.50;;
78563;SDS011;67856;47.754;19.088;2023-08-20T10:09:08;2.70;;;2.50;;
78563;SDS011;67856;47.754;19.088;2023-08-20T10:12:12;2.33;;;2.13;;
78563;SDS011;67856;47.754;19.088;2023-08-20T10:15:15;2.50;;;2.30;;
78563;SDS011;67856;47.754;19.088;2023-08-20T10:18:19;3.30;;;2.80;;
78563;SDS011;67856;47.754;19.088;2023-08-20T10:21:23;2.50;;;2.30;;
78563;SDS011;67856;47.754;19.088;2023-08-20T10:24:27;2.60;;;2.40;;
78563;SDS011;67856;47.754;19.088;2023-08-20T10:27:33;2.43;;;2.23;;
78563;SDS011;67856;47.754;19.088;2023-08-20T10:30:37;2.50;;;2.30;;
78563;SDS011;67856;47.754;19.088;2023-08-20T10:36:48;2.50;;;2.30;;
78563;SDS011;67856;47.754;19.088;2023-08-20T10:39:56;2.60;;;2.40;;
78563;SDS011;67856;47.754;19.088;2023-08-20T10:43:01;2.50;;;2.30;;
78563;SDS011;67856;47.754;19.088;2023-08-20T10:49:15;2.40;;;2.17;;
78563;SDS011;67856;47.754;19.088;2023-08-20T10:52:24;2.55;;;2.35;;
78563;SDS011;67856;47.754;19.088;2023-08-20T10:55:27;2.65;;;2.45;;
78563;SDS011;67856;47.754;19.088;2023-08-20T10:58:30;2.47;;;2.27;;
78563;SDS011;67856;47.754;19.088;2023-08-20T11:01:32;2.47;;;2.28;;
78563;SDS011;67856;47.754;19.088;2023-08-20T11:04:35;2.60;;;2.40;;
78563;SDS011;67856;47.754;19.088;2023-08-20T11:07:37;2.70;;;2.50;;
78563;SDS011;67856;47.754;19.088;2023-08-20T11:10:41;2.35;;;2.15;;
78563;SDS011;67856;47.754;19.088;2023-08-20T11:13:43;2.40;;;2.20;;
78563;SDS011;67856;47.754;19.088;2023-08-20T11:16:46;2.45;;;2.25;;
78563;SDS011;67856;47.754;19.088;2023-08-20T11:19:49;2.63;;;2.42;;
78563;SDS011;67856;47.754;19.088;2023-08-20T11:23:08;2.40;;;2.20;;
78563;SDS011;67856;47.754;19.088;2023-08-20T11:26:12;2.63;;;2.40;;
78563;SDS011;67856;47.754;19.088;2023-08-20T11:29:16;2.33;;;2.13;;
78563;SDS011;67856;47.754;19.088;2023-08-20T11:32:23;2.30;;;2.10;;
78563;SDS011;67856;47.754;19.088;2023-08-20T11:35:26;2.72;;;2.30;;
78563;SDS011;67856;47.754;19.088;2023-08-20T11:38:28;2.55;;;2.33;;
78563;SDS011;67856;47.754;19.088;2023-08-20T11:41:33;2.60;;;2.40;;
78563;SDS011;67856;47.754;19.088;2023-08-20T11:44:45;2.30;;;2.10;;
78563;SDS011;67856;47.754;19.088;2023-08-20T11:47:48;2.55;;;2.35;;
78563;SDS011;67856;47.754;19.088;2023-08-20T11:50:51;2.38;;;2.17;;
78563;SDS011;67856;47.754;19.088;2023-08-20T11:53:53;2.50;;;2.30;;
78563;SDS011;67856;47.754;19.088;2023-08-20T11:57:01;2.70;;;2.50;;
78563;SDS011;67856;47.754;19.088;2023-08-20T12:00:05;2.57;;;2.37;;
78563;SDS011;67856;47.754;19.088;2023-08-20T12:03:15;2.63;;;2.42;;
78563;SDS011;67856;47.754;19.088;2023-08-20T12:06:20;2.65;;;2.45;;
78563;SDS011;67856;47.754;19.088;2023-08-20T12:09:25;2.40;;;2.20;;
78563;SDS011;67856;47.754;19.088;2023-08-20T12:12:27;2.70;;;2.50;;
78563;SDS011;67856;47.754;19.088;2023-08-20T12:15:30;2.50;;;2.30;;
78563;SDS011;67856;47.754;19.088;2023-08-20T12:18:32;2.33;;;2.13;;
78563;SDS011;67856;47.754;19.088;2023-08-20T12:21:34;2.50;;;2.30;;
78563;SDS011;67856;47.754;19.088;2023-08-20T12:24:37;2.70;;;2.50;;
78563;SDS011;67856;47.754;19.088;2023-08-20T12:27:42;2.50;;;2.30;;
78563;SDS011;67856;47.754;19.088;2023-08-20T12:30:45;2.57;;;2.37;;
78563;SDS011;67856;47.754;19.088;2023-08-20T12:33:48;2.60;;;2.40;;
78563;SDS011;67856;47.754;19.088;2023-08-20T12:36:50;2.65;;;2.45;;
78563;SDS011;67856;47.754;19.088;2023-08-20T12:39:54;2.70;;;2.50;;
78563;SDS011;67856;47.754;19.088;2023-08-20T12:42:56;2.67;;;2.47;;
78563;SDS011;67856;47.754;19.088;2023-08-20T12:45:59;2.37;;;2.17;;
78563;SDS011;67856;47.754;19.088;2023-08-20T12:49:01;2.60;;;2.40;;
78563;SDS011;67856;47.754;19.088;2023-08-20T12:52:04;2.60;;;2.40;;
78563;SDS011;67856;47.754;19.088;2023-08-20T12:55:06;2.38;;;2.17;;
78563;SDS011;67856;47.754;19.088;2023-08-20T12:58:09;2.60;;;2.40;;
78563;SDS011;67856;47.754;19.088;2023-08-20T13:01:12;2.70;;;2.50;;
78563;SDS011;67856;47.754;19.088;2023-08-20T13:04:14;2.50;;;2.30;;
78563;SDS011;67856;47.754;19.088;2023-08-20T13:07:17;2.58;;;2.38;;
78563;SDS011;67856;47.754;19.088;2023-08-20T13:10:20;2.58;;;2.38;;
78563;SDS011;67856;47.754;19.088;2023-08-20T13:13:23;2.60;;;2.40;;
78563;SDS011;67856;47.754;19.088;2023-08-20T13:16:26;2.53;;;2.33;;
78563;SDS011;67856;47.754;19.088;2023-08-20T13:19:29;2.50;;;2.30;;
78563;SDS011;67856;47.754;19.088;2023-08-20T13:22:32;2.60;;;2.40;;
78563;SDS011;67856;47.754;19.088;2023-08-20T13:25:34;2.38;;;2.17;;
78563;SDS011;67856;47.754;19.088;2023-08-20T13:28:37;2.70;;;2.50;;
78563;SDS011;67856;47.754;19.088;2023-08-20T13:31:39;2.40;;;2.20;;
78563;SDS011;67856;47.754;19.088;2023-08-20T13:34:41;2.70;;;2.50;;
78563;SDS011;67856;47.754;19.088;2023-08-20T13:37:44;2.63;;;2.42;;
78563;SDS011;67856;47.754;19.088;2023-08-20T13:40:47;2.70;;;2.50;;
78563;SDS011;67856;47.754;19.088;2023-08-20T13:43:50;2.53;;;2.33;;
78563;SDS011;67856;47.754;19.088;2023-08-20T13:46:53;2.60;;;2.40;;
78563;SDS011;67856;47.754;19.088;2023-08-20T13:49:56;2.60;;;2.40;;
78563;SDS011;67856;47.754;19.088;2023-08-20T13:52:59;2.45;;;2.25;;
78563;SDS011;67856;47.754;19.088;2023-08-20T13:56:03;2.45;;;2.25;;
78563;SDS011;67856;47.754;19.088;2023-08-20T13:59:05;2.78;;;2.58;;
78563;SDS011;67856;47.754;19.088;2023-08-20T14:02:08;2.50;;;2.30;;
78563;SDS011;67856;47.754;19.088;2023-08-20T14:05:10;2.63;;;2.42;;
78563;SDS011;67856;47.754;19.088;2023-08-20T14:08:12;2.47;;;2.28;;
78563;SDS011;67856;47.754;19.088;2023-08-20T14:11:15;2.60;;;2.40;;
78563;SDS011;67856;47.754;19.088;2023-08-20T14:14:17;2.50;;;2.30;;
78563;SDS011;67856;47.754;19.088;2023-08-20T14:17:20;2.50;;;2.30;;
78563;SDS011;67856;47.754;19.088;2023-08-20T14:20:22;2.40;;;2.20;;
78563;SDS011;67856;47.754;19.088;2023-08-20T14:23:24;2.70;;;2.50;;
78563;SDS011;67856;47.754;19.088;2023-08-20T14:26:27;2.40;;;2.20;;
78563;SDS011;67856;47.754;19.088;2023-08-20T14:29:29;2.55;;;2.35;;
78563;SDS011;67856;47.754;19.088;2023-08-20T14:32:32;2.43;;;2.23;;
78563;SDS011;67856;47.754;19.088;2023-08-20T14:35:34;2.67;;;2.47;;
78563;SDS011;67856;47.754;19.088;2023-08-20T14:38:37;2.55;;;2.35;;
78563;SDS011;67856;47.754;19.088;2023-08-20T14:41:39;2.45;;;2.25;;
78563;SDS011;67856;47.754;19.088;2023-08-20T14:44:41;2.60;;;2.40;;
78563;SDS011;67856;47.754;19.088;2023-08-20T14:47:44;2.70;;;2.50;;
78563;SDS011;67856;47.754;19.088;2023-08-20T14:50:46;2.40;;;2.20;;
78563;SDS011;67856;47.754;19.088;2023-08-20T14:53:50;2.60;;;2.40;;
78563;SDS011;67856;47.754;19.088;2023-08-20T14:56:52;2.50;;;2.30;;
78563;SDS011;67856;47.754;19.088;2023-08-20T14:59:55;2.63;;;2.42;;
78563;SDS011;67856;47.754;19.088;2023-08-20T15:02:57;2.40;;;2.20;;
78563;SDS011;67856;47.754;19.088;2023-08-20T15:05:59;2.58;;;2.38;;
78563;SDS011;67856;47.754;19.088;2023-08-20T15:09:02;2.78;;;2.58;;
78563;SDS011;67856;47.754;19.088;2023-08-20T15:12:05;2.40;;;2.20;;
78563;SDS011;67856;47.754;19.088;2023-08-20T15:15:08;2.60;;;2.40;;
78563;SDS011;67856;47.754;19.088;2023-08-20T15:18:11;2.50;;;2.30;;
78563;SDS011;67856;47.754;19.088;2023-08-20T15:21:13;2.50;;;2.30;;
78563;SDS011;67856;47.754;19.088;2023-08-20T15:24:15;2.67;;;2.47;;
78563;SDS011;67856;47.754;19.088;2023-08-20T15:27:18;2.42;;;2.22;;
78563;SDS011;67856;47.754;19.088;2023-08-20T15:30:20;2.47;;;2.28;;
78563;SDS011;67856;47.754;19.088;2023-08-20T15:33:27;2.60;;;2.40;;
78563;SDS011;67856;47.754;19.088;2023-08-20T15:36:29;2.58;;;2.38;;
78563;SDS011;67856;47.754;19.088;2023-08-20T15:39:32;2.67;;;2.47;;
78563;SDS011;67856;47.754;19.088;2023-08-20T15:42:37;2.78;;;2.33;;
78563;SDS011;67856;47.754;19.088;2023-08-20T15:45:41;2.80;;;2.60;;
78563;SDS011;67856;47.754;19.088;2023-08-20T15:48:44;2.50;;;2.30;;
78563;SDS011;67856;47.754;19.088;2023-08-20T15:51:46;2.70;;;2.30;;
78563;SDS011;67856;47.754;19.088;2023-08-20T15:54:48;2.53;;;2.33;;
78563;SDS011;67856;47.754;19.088;2023-08-20T15:57:51;2.67;;;2.47;;
78563;SDS011;67856;47.754;19.088;2023-08-20T16:00:53;2.60;;;2.40;;
78563;SDS011;67856;47.754;19.088;2023-08-20T16:03:56;2.60;;;2.30;;
78563;SDS011;67856;47.754;19.088;2023-08-20T16:06:58;2.50;;;2.30;;
78563;SDS011;67856;47.754;19.088;2023-08-20T16:10:01;2.60;;;2.40;;
78563;SDS011;67856;47.754;19.088;2023-08-20T16:13:06;2.70;;;2.50;;
78563;SDS011;67856;47.754;19.088;2023-08-20T16:16:08;2.55;;;2.35;;
78563;SDS011;67856;47.754;19.088;2023-08-20T16:19:11;2.70;;;2.50;;
78563;SDS011;67856;47.754;19.088;2023-08-20T16:22:16;2.58;;;2.38;;
78563;SDS011;67856;47.754;19.088;2023-08-20T16:25:18;2.38;;;2.17;;
78563;SDS011;67856;47.754;19.088;2023-08-20T16:28:21;2.45;;;2.25;;
78563;SDS011;67856;47.754;19.088;2023-08-20T16:31:23;2.33;;;2.13;;
78563;SDS011;67856;47.754;19.088;2023-08-20T16:34:25;2.50;;;2.30;;
78563;SDS011;67856;47.754;19.088;2023-08-20T16:37:28;2.40;;;2.20;;
78563;SDS011;67856;47.754;19.088;2023-08-20T16:40:30;2.60;;;2.40;;
78563;SDS011;67856;47.754;19.088;2023-08-20T16:43:33;2.42;;;2.22;;
78563;SDS011;67856;47.754;19.088;2023-08-20T16:46:35;2.53;;;2.33;;
78563;SDS011;67856;47.754;19.088;2023-08-20T16:49:40;2.50;;;2.30;;
78563;SDS011;67856;47.754;19.088;2023-08-20T16:52:44;2.50;;;2.30;;
78563;SDS011;67856;47.754;19.088;2023-08-20T16:55:49;2.45;;;2.25;;
78563;SDS011;67856;47.754;19.088;2023-08-20T16:58:55;2.45;;;2.25;;
78563;SDS011;67856;47.754;19.088;2023-08-20T17:01:57;2.60;;;2.40;;
78563;SDS011;67856;47.754;19.088;2023-08-20T17:05:00;2.30;;;2.10;;
78563;SDS011;67856;47.754;19.088;2023-08-20T17:08:03;2.40;;;2.20;;
78563;SDS011;67856;47.754;19.088;2023-08-20T17:11:07;2.55;;;2.35;;
78563;SDS011;67856;47.754;19.088;2023-08-20T17:14:10;2.40;;;2.20;;
78563;SDS011;67856;47.754;19.088;2023-08-20T17:17:13;2.70;;;2.50;;
78563;SDS011;67856;47.754;19.088;2023-08-20T17:20:16;2.37;;;2.17;;
78563;SDS011;67856;47.754;19.088;2023-08-20T17:23:18;2.40;;;2.20;;
78563;SDS011;67856;47.754;19.088;2023-08-20T17:26:21;2.42;;;2.22;;
78563;SDS011;67856;47.754;19.088;2023-08-20T17:29:23;2.40;;;2.20;;
78563;SDS011;67856;47.754;19.088;2023-08-20T17:32:26;2.60;;;2.40;;
78563;SDS011;67856;47.754;19.088;2023-08-20T17:35:28;2.60;;;2.40;;
78563;SDS011;67856;47.754;19.088;2023-08-20T17:38:31;2.40;;;2.20;;
78563;SDS011;67856;47.754;19.088;2023-08-20T17:41:33;2.60;;;2.40;;
78563;SDS011;67856;47.754;19.088;2023-08-20T17:44:36;2.40;;;2.20;;
78563;SDS011;67856;47.754;19.088;2023-08-20T17:47:38;2.67;;;2.47;;
78563;SDS011;67856;47.754;19.088;2023-08-20T17:50:41;2.57;;;2.37;;
78563;SDS011;67856;47.754;19.088;2023-08-20T17:53:43;2.40;;;2.20;;
78563;SDS011;67856;47.754;19.088;2023-08-20T17:56:46;2.47;;;2.28;;
78563;SDS011;67856;47.754;19.088;2023-08-20T17:59:48;2.63;;;2.42;;
78563;SDS011;67856;47.754;19.088;2023-08-20T18:02:50;2.55;;;2.35;;
78563;SDS011;67856;47.754;19.088;2023-08-20T18:05:53;2.50;;;2.30;;
78563;SDS011;67856;47.754;19.088;2023-08-20T18:08:58;2.40;;;2.20;;
78563;SDS011;67856;47.754;19.088;2023-08-20T18:12:01;2.70;;;2.50;;
78563;SDS011;67856;47.754;19.088;2023-08-20T18:15:03;2.40;;;2.20;;
78563;SDS011;67856;47.754;19.088;2023-08-20T18:18:06;2.60;;;2.40;;
78563;SDS011;67856;47.754;19.088;2023-08-20T18:21:09;2.50;;;2.30;;
78563;SDS011;67856;47.754;19.088;2023-08-20T18:24:11;2.42;;;2.20;;
78563;SDS011;67856;47.754;19.088;2023-08-20T18:27:14;2.50;;;2.30;;